createdAt,value
2019-05-07T00:01:02.853Z,6.90
2019-05-07T00:03:32.856Z,6.70
2019-05-07T00:06:02.824Z,6.70
2019-05-07T00:08:32.179Z,6.70
2019-05-07T00:11:02.273Z,6.60
2019-05-07T00:13:33.113Z,6.70
2019-05-07T00:16:02.479Z,6.60
2019-05-07T00:18:32.212Z,6.50
2019-05-07T00:21:03.369Z,6.40
2019-05-07T00:23:32.505Z,6.40
2019-05-07T00:26:02.368Z,6.30
2019-05-07T00:28:46.218Z,6.10
2019-05-07T00:31:14.674Z,6.10
2019-05-07T00:33:43.478Z,6.10
2019-05-07T00:36:32.227Z,5.90
2019-05-07T00:39:07.373Z,5.90
2019-05-07T00:41:49.468Z,6.00
2019-05-07T00:44:18.570Z,5.90
2019-05-07T00:46:47.272Z,5.90
2019-05-07T00:49:15.697Z,5.80
2019-05-07T00:51:44.170Z,5.70
2019-05-07T00:54:12.611Z,5.60
2019-05-07T00:56:42.906Z,5.60
2019-05-07T00:59:13.080Z,5.50
2019-05-07T01:01:43.233Z,5.50
2019-05-07T01:04:12.049Z,5.40
2019-05-07T01:06:42.367Z,5.40
2019-05-07T01:09:12.337Z,5.40
2019-05-07T01:11:42.941Z,5.40
2019-05-07T01:14:12.377Z,5.50
2019-05-07T01:16:42.057Z,5.60
2019-05-07T01:19:12.514Z,5.70
2019-05-07T01:21:43.076Z,5.70
2019-05-07T01:24:12.325Z,5.60
2019-05-07T01:26:42.566Z,5.30
2019-05-07T01:29:12.917Z,5.30
2019-05-07T01:31:43.217Z,5.30
2019-05-07T01:34:13.348Z,5.20
2019-05-07T01:36:42.700Z,5.20
2019-05-07T01:39:13.107Z,5.20
2019-05-07T01:41:42.015Z,4.90
2019-05-07T01:44:12.715Z,4.80
2019-05-07T01:46:42.207Z,4.60
2019-05-07T01:49:12.536Z,4.80
2019-05-07T01:51:56.176Z,4.70
2019-05-07T01:54:24.630Z,4.70
2019-05-07T01:56:53.052Z,4.70
2019-05-07T01:59:22.462Z,4.70
2019-05-07T02:01:52.780Z,4.80
2019-05-07T02:04:38.193Z,4.80
2019-05-07T02:07:22.585Z,4.70
2019-05-07T02:10:02.800Z,4.70
2019-05-07T02:12:36.288Z,4.80
2019-05-07T02:15:07.000Z,4.80
2019-05-07T02:17:35.502Z,4.70
2019-05-07T02:20:06.405Z,4.60
2019-05-07T02:22:34.855Z,4.60
2019-05-07T02:25:03.489Z,4.60
2019-05-07T02:27:32.895Z,4.60
2019-05-07T02:30:04.327Z,4.50
2019-05-07T02:32:33.600Z,4.60
2019-05-07T02:35:03.978Z,4.80
2019-05-07T02:37:46.463Z,4.90
2019-05-07T02:40:16.897Z,4.90
2019-05-07T02:42:45.407Z,4.90
2019-05-07T02:45:24.555Z,4.50
2019-05-07T02:47:53.012Z,4.30
2019-05-07T02:50:23.086Z,4.20
2019-05-07T02:52:53.889Z,4.20
2019-05-07T02:55:43.438Z,4.20
2019-05-07T02:58:13.551Z,4.10
2019-05-07T03:00:43.456Z,4.10
2019-05-07T03:03:13.817Z,4.20
2019-05-07T03:05:43.187Z,4.20
2019-05-07T03:08:13.383Z,4.10
2019-05-07T03:10:43.446Z,4.00
2019-05-07T03:13:13.818Z,4.00
2019-05-07T03:15:43.539Z,4.00
2019-05-07T03:18:13.847Z,4.00
2019-05-07T03:21:24.282Z,4.00
2019-05-07T03:23:57.309Z,4.00
2019-05-07T03:26:27.404Z,4.00
2019-05-07T03:28:57.512Z,4.00
2019-05-07T03:31:46.655Z,4.00
2019-05-07T03:34:25.576Z,4.00
2019-05-07T03:36:56.782Z,4.00
2019-05-07T03:39:26.898Z,4.00
2019-05-07T03:41:55.413Z,4.10
2019-05-07T03:44:28.207Z,4.00
2019-05-07T03:47:03.183Z,4.10
2019-05-07T03:49:34.181Z,4.10
2019-05-07T03:52:04.385Z,4.10
2019-05-07T03:54:34.058Z,4.10
2019-05-07T03:57:10.905Z,4.20
2019-05-07T03:59:59.746Z,4.20
2019-05-07T04:02:28.204Z,4.30
2019-05-07T04:04:56.648Z,4.50
2019-05-07T04:07:25.334Z,4.70
2019-05-07T04:09:53.800Z,4.70
2019-05-07T04:12:23.960Z,4.40
2019-05-07T04:14:53.437Z,4.40
2019-05-07T04:17:26.652Z,4.20
2019-05-07T04:19:53.358Z,4.10
2019-05-07T04:22:25.216Z,3.90
2019-05-07T04:24:53.719Z,4.00
2019-05-07T04:27:59.696Z,3.90
2019-05-07T04:30:29.024Z,4.00
2019-05-07T04:32:59.085Z,4.20
2019-05-07T04:35:29.191Z,4.30
2019-05-07T04:38:01.810Z,4.30
2019-05-07T04:40:28.003Z,4.30
2019-05-07T04:42:56.462Z,4.30
2019-05-07T04:45:24.880Z,4.30
2019-05-07T04:47:53.973Z,4.30
2019-05-07T04:50:38.095Z,4.20
2019-05-07T04:52:54.425Z,4.10
2019-05-07T04:55:23.084Z,4.10
2019-05-07T04:57:53.335Z,4.10
2019-05-07T05:00:22.988Z,4.20
2019-05-07T05:02:56.205Z,4.30
2019-05-07T05:05:25.255Z,4.40
2019-05-07T05:07:53.705Z,4.40
2019-05-07T05:10:23.123Z,4.30
2019-05-07T05:12:53.673Z,4.40
2019-05-07T05:15:22.292Z,4.30
2019-05-07T05:17:53.701Z,4.50
2019-05-07T05:20:23.131Z,4.80
2019-05-07T05:23:12.112Z,4.90
2019-05-07T05:25:43.793Z,5.00
2019-05-07T05:28:12.808Z,5.00
2019-05-07T05:30:43.380Z,5.10
2019-05-07T05:33:12.587Z,5.10
2019-05-07T05:35:43.160Z,5.20
2019-05-07T05:38:12.699Z,5.20
2019-05-07T05:40:42.771Z,5.30
2019-05-07T05:43:22.460Z,5.40
2019-05-07T05:45:58.879Z,5.40
2019-05-07T05:48:27.301Z,5.30
2019-05-07T05:50:57.369Z,5.30
2019-05-07T05:53:36.296Z,5.40
2019-05-07T05:56:09.070Z,5.50
2019-05-07T05:58:53.840Z,5.60
2019-05-07T06:01:23.923Z,5.70
2019-05-07T06:03:56.974Z,5.80
2019-05-07T06:06:33.477Z,5.80
2019-05-07T06:09:21.764Z,5.80
2019-05-07T06:12:07.942Z,5.90
2019-05-07T06:14:56.171Z,6.10
2019-05-07T06:17:28.980Z,6.20
2019-05-07T06:20:07.998Z,6.30
2019-05-07T06:22:42.445Z,6.40
2019-05-07T06:25:14.792Z,6.40
2019-05-07T06:27:43.290Z,6.50
2019-05-07T06:30:12.686Z,6.60
2019-05-07T06:32:43.007Z,6.80
2019-05-07T06:35:12.261Z,6.80
2019-05-07T06:37:42.915Z,6.90
2019-05-07T06:40:32.342Z,6.90
2019-05-07T06:43:03.170Z,6.90
2019-05-07T06:45:42.313Z,7.10
2019-05-07T06:48:12.672Z,7.20
2019-05-07T06:50:43.217Z,7.20
2019-05-07T06:53:12.132Z,7.30
2019-05-07T06:55:42.733Z,7.40
2019-05-07T06:58:12.260Z,7.40
2019-05-07T07:00:42.501Z,7.40
2019-05-07T07:03:15.843Z,7.50
2019-05-07T07:05:45.914Z,7.50
2019-05-07T07:08:24.757Z,7.50
2019-05-07T07:11:12.845Z,7.40
2019-05-07T07:13:42.697Z,7.50
2019-05-07T07:16:12.668Z,7.60
2019-05-07T07:18:51.192Z,7.60
2019-05-07T07:21:12.366Z,7.70
2019-05-07T07:23:42.990Z,7.60
2019-05-07T07:26:12.614Z,7.50
2019-05-07T07:28:49.196Z,7.60
2019-05-07T07:31:28.273Z,7.70
2019-05-07T07:33:58.433Z,7.80
2019-05-07T07:36:28.497Z,7.90
2019-05-07T07:38:56.943Z,7.80
2019-05-07T07:41:33.230Z,7.80
2019-05-07T07:44:02.185Z,7.90
2019-05-07T07:46:32.825Z,8.00
2019-05-07T07:49:07.871Z,8.00
2019-05-07T07:51:40.501Z,8.10
2019-05-07T07:54:02.506Z,8.20
2019-05-07T07:56:48.330Z,8.30
2019-05-07T07:59:07.721Z,8.40
2019-05-07T08:01:42.155Z,8.40
2019-05-07T08:04:12.302Z,8.40
2019-05-07T08:06:42.087Z,8.50
2019-05-07T08:09:12.925Z,8.60
2019-05-07T08:11:42.583Z,8.60
2019-05-07T08:14:12.618Z,8.70
2019-05-07T08:16:43.009Z,8.80
2019-05-07T08:19:19.347Z,9.00
2019-05-07T08:21:42.120Z,9.10
2019-05-07T08:24:12.264Z,9.20
2019-05-07T08:26:42.780Z,9.20
2019-05-07T08:29:11.928Z,9.30
2019-05-07T08:31:58.909Z,9.40
2019-05-07T08:34:44.089Z,9.50
2019-05-07T08:37:12.524Z,9.60
2019-05-07T08:39:42.414Z,9.60
2019-05-07T08:42:12.287Z,9.70
2019-05-07T08:45:02.952Z,9.80
2019-05-07T08:47:35.181Z,10.00
2019-05-07T08:50:06.025Z,10.20
2019-05-07T08:52:34.449Z,10.30
2019-05-07T08:55:02.892Z,10.20
2019-05-07T08:57:31.893Z,10.20
2019-05-07T09:00:02.228Z,10.30
2019-05-07T09:02:32.414Z,10.50
2019-05-07T09:05:03.005Z,10.60
2019-05-07T09:07:32.190Z,10.50
2019-05-07T09:10:02.514Z,10.60
2019-05-07T09:12:31.830Z,10.60
2019-05-07T09:15:02.157Z,10.70
2019-05-07T09:17:31.878Z,10.90
2019-05-07T09:20:02.382Z,10.90
2019-05-07T09:22:32.347Z,11.10
2019-05-07T09:25:03.147Z,11.20
2019-05-07T09:27:32.932Z,11.20
2019-05-07T09:30:03.057Z,11.30
2019-05-07T09:32:33.262Z,11.40
2019-05-07T09:35:03.397Z,11.20
2019-05-07T09:37:32.761Z,11.30
2019-05-07T09:40:02.822Z,11.40
2019-05-07T09:42:33.302Z,11.50
2019-05-07T09:45:02.024Z,11.60
2019-05-07T09:47:32.553Z,11.80
2019-05-07T09:50:07.037Z,11.90
2019-05-07T09:52:32.105Z,12.00
2019-05-07T09:55:11.099Z,11.80
2019-05-07T09:57:33.919Z,11.90
2019-05-07T10:00:02.288Z,12.00
2019-05-07T10:02:32.099Z,12.00
2019-05-07T10:05:02.392Z,12.00
2019-05-07T10:07:32.431Z,12.30
2019-05-07T10:10:14.096Z,12.20
2019-05-07T10:12:44.338Z,12.30
2019-05-07T10:15:13.109Z,12.10
2019-05-07T10:17:49.223Z,12.30
2019-05-07T10:20:22.673Z,12.40
2019-05-07T10:22:51.903Z,12.50
2019-05-07T10:25:22.268Z,12.80
2019-05-07T10:27:53.244Z,13.20
2019-05-07T10:30:22.013Z,13.40
2019-05-07T10:32:52.760Z,13.50
2019-05-07T10:35:22.957Z,13.30
2019-05-07T10:37:52.801Z,13.50
2019-05-07T10:40:22.390Z,13.70
2019-05-07T10:42:51.918Z,13.70
2019-05-07T10:45:38.377Z,13.70
2019-05-07T10:48:23.358Z,13.60
2019-05-07T10:50:53.424Z,13.80
2019-05-07T10:53:22.937Z,13.90
2019-05-07T10:55:51.546Z,13.90
2019-05-07T10:58:20.055Z,13.90
2019-05-07T11:00:48.485Z,14.00
2019-05-07T11:03:17.012Z,13.90
2019-05-07T11:05:45.436Z,14.20
2019-05-07T11:08:13.859Z,14.40
2019-05-07T11:10:42.738Z,14.70
2019-05-07T11:13:12.876Z,14.80
2019-05-07T11:15:43.086Z,14.70
2019-05-07T11:18:13.437Z,14.70
2019-05-07T11:20:49.762Z,14.20
2019-05-07T11:23:12.350Z,14.60
2019-05-07T11:25:42.056Z,15.00
2019-05-07T11:28:12.387Z,14.50
2019-05-07T11:30:42.503Z,14.20
2019-05-07T11:33:12.865Z,14.30
2019-05-07T11:35:42.262Z,14.80
2019-05-07T11:38:18.753Z,15.40
2019-05-07T11:40:42.693Z,15.60
2019-05-07T11:43:19.120Z,15.70
2019-05-07T11:45:49.194Z,16.00
2019-05-07T11:48:29.655Z,15.70
2019-05-07T11:51:05.211Z,15.80
2019-05-07T11:53:35.289Z,15.70
2019-05-07T11:56:03.776Z,15.70
2019-05-07T11:58:32.638Z,16.00
2019-05-07T12:01:03.964Z,16.20
2019-05-07T12:03:32.717Z,16.10
2019-05-07T12:06:02.125Z,16.10
2019-05-07T12:08:48.125Z,16.30
2019-05-07T12:11:11.780Z,16.40
2019-05-07T12:13:42.562Z,16.30
2019-05-07T12:16:13.950Z,16.40
2019-05-07T12:18:42.963Z,16.60
2019-05-07T12:21:20.759Z,16.50
2019-05-07T12:23:44.278Z,16.40
2019-05-07T12:26:12.824Z,16.20
2019-05-07T12:28:41.869Z,16.70
2019-05-07T12:31:22.433Z,16.50
2019-05-07T12:33:55.369Z,16.10
2019-05-07T12:36:23.831Z,16.80
2019-05-07T12:38:53.276Z,16.90
2019-05-07T12:41:33.830Z,17.00
2019-05-07T12:44:04.403Z,16.50
2019-05-07T12:46:33.756Z,16.90
2019-05-07T12:49:03.156Z,17.20
2019-05-07T12:51:37.378Z,17.40
2019-05-07T12:54:08.417Z,17.50
2019-05-07T12:56:36.892Z,17.40
2019-05-07T12:59:05.328Z,17.20
2019-05-07T13:01:52.011Z,17.10
2019-05-07T13:04:24.529Z,17.10
2019-05-07T13:06:57.312Z,16.90
2019-05-07T13:09:25.723Z,17.10
2019-05-07T13:11:54.219Z,17.50
2019-05-07T13:14:22.639Z,17.90
2019-05-07T13:16:52.296Z,18.20
2019-05-07T13:19:22.674Z,18.30
2019-05-07T13:21:51.233Z,17.30
2019-05-07T13:24:19.652Z,17.00
2019-05-07T13:26:48.084Z,17.90
2019-05-07T13:29:16.508Z,18.10
2019-05-07T13:31:45.856Z,18.10
2019-05-07T13:34:14.529Z,17.60
2019-05-07T13:36:44.661Z,17.70
2019-05-07T13:39:14.856Z,18.00
2019-05-07T13:41:44.930Z,18.30
2019-05-07T13:44:17.630Z,17.20
2019-05-07T13:46:46.709Z,18.00
2019-05-07T13:49:38.828Z,18.30
2019-05-07T13:52:07.404Z,18.60
2019-05-07T13:54:35.882Z,18.60
2019-05-07T13:57:04.317Z,17.80
2019-05-07T13:59:32.749Z,17.80
2019-05-07T14:02:05.032Z,17.40
2019-05-07T14:04:34.706Z,17.40
2019-05-07T14:07:03.285Z,17.60
2019-05-07T14:09:32.616Z,18.10
2019-05-07T14:12:02.009Z,17.90
2019-05-07T14:14:34.185Z,18.30
2019-05-07T14:17:02.356Z,18.50
2019-05-07T14:19:32.718Z,18.20
2019-05-07T14:22:13.888Z,18.10
2019-05-07T14:24:32.790Z,18.10
2019-05-07T14:27:02.050Z,18.50
2019-05-07T14:29:32.050Z,18.70
2019-05-07T14:32:02.402Z,18.70
2019-05-07T14:34:34.891Z,18.70
2019-05-07T14:37:13.061Z,18.60
2019-05-07T14:39:42.556Z,17.70
2019-05-07T14:42:12.947Z,17.60
2019-05-07T14:44:47.991Z,18.00
2019-05-07T14:47:17.851Z,17.60
2019-05-07T14:49:46.598Z,18.20
2019-05-07T14:52:22.652Z,17.90
2019-05-07T14:54:45.341Z,17.30
2019-05-07T14:57:14.017Z,17.60
2019-05-07T14:59:42.808Z,18.40
2019-05-07T15:02:12.071Z,18.80
2019-05-07T15:04:41.957Z,18.60
2019-05-07T15:07:11.948Z,18.80
2019-05-07T15:09:42.473Z,18.80
2019-05-07T15:12:12.437Z,18.60
2019-05-07T15:14:42.167Z,18.50
2019-05-07T15:17:18.155Z,18.40
2019-05-07T15:19:46.583Z,18.50
2019-05-07T15:22:25.406Z,18.90
2019-05-07T15:24:53.892Z,19.00
2019-05-07T15:27:22.924Z,18.10
2019-05-07T15:29:52.651Z,17.00
2019-05-07T15:32:21.892Z,17.00
2019-05-07T15:34:52.552Z,17.80
2019-05-07T15:37:20.648Z,18.40
2019-05-07T15:39:49.080Z,18.50
2019-05-07T15:42:17.551Z,18.80
2019-05-07T15:44:45.988Z,19.00
2019-05-07T15:47:16.045Z,19.30
2019-05-07T15:49:44.477Z,19.40
2019-05-07T15:52:32.596Z,19.50
2019-05-07T15:55:02.747Z,19.40
2019-05-07T15:57:32.789Z,19.50
2019-05-07T16:00:06.067Z,19.50
2019-05-07T16:02:36.133Z,19.40
2019-05-07T16:05:06.702Z,19.30
2019-05-07T16:07:35.293Z,19.30
2019-05-07T16:10:04.847Z,18.10
2019-05-07T16:12:33.269Z,18.10
2019-05-07T16:15:03.184Z,18.60
2019-05-07T16:17:33.699Z,18.60
2019-05-07T16:20:03.198Z,18.20
2019-05-07T16:22:36.609Z,18.50
2019-05-07T16:25:07.456Z,18.70
2019-05-07T16:27:37.722Z,18.70
2019-05-07T16:30:07.010Z,18.60
2019-05-07T16:32:35.428Z,18.50
2019-05-07T16:35:05.635Z,18.40
2019-05-07T16:37:34.297Z,18.20
2019-05-07T16:40:04.792Z,18.10
2019-05-07T16:42:33.262Z,17.90
2019-05-07T16:45:02.876Z,17.60
2019-05-07T16:47:32.471Z,17.50
2019-05-07T16:50:04.027Z,17.50
2019-05-07T16:52:34.749Z,17.50
2019-05-07T16:55:02.974Z,17.20
2019-05-07T16:57:38.991Z,17.10
2019-05-07T17:00:10.906Z,17.00
2019-05-07T17:02:43.494Z,17.00
2019-05-07T17:05:13.570Z,17.00
2019-05-07T17:07:51.976Z,16.90
2019-05-07T17:10:22.217Z,16.70
2019-05-07T17:12:52.253Z,16.60
2019-05-07T17:15:22.610Z,16.30
2019-05-07T17:17:52.261Z,16.00
2019-05-07T17:20:21.950Z,16.00
2019-05-07T17:22:51.928Z,16.10
2019-05-07T17:25:38.547Z,16.00
2019-05-07T17:28:07.887Z,16.00
2019-05-07T17:30:37.741Z,15.60
2019-05-07T17:33:07.079Z,15.60
2019-05-07T17:35:35.510Z,15.60
2019-05-07T17:38:07.274Z,15.60
2019-05-07T17:40:34.221Z,15.50
2019-05-07T17:43:03.172Z,15.40
2019-05-07T17:45:37.553Z,15.40
2019-05-07T17:48:05.971Z,15.20
2019-05-07T17:50:52.599Z,15.00
2019-05-07T17:53:22.521Z,14.80
2019-05-07T17:55:52.961Z,15.00
2019-05-07T17:58:21.267Z,15.10
2019-05-07T18:00:52.901Z,14.80
2019-05-07T18:03:34.141Z,14.90
2019-05-07T18:06:03.123Z,14.90
2019-05-07T18:08:32.474Z,14.70
2019-05-07T18:11:02.264Z,14.80
2019-05-07T18:13:32.271Z,14.70
2019-05-07T18:16:03.016Z,14.60
2019-05-07T18:18:32.791Z,14.50
2019-05-07T18:21:02.231Z,14.50
2019-05-07T18:23:32.172Z,14.50
2019-05-07T18:26:00.901Z,14.40
2019-05-07T18:28:29.466Z,14.30
2019-05-07T18:30:58.101Z,14.20
2019-05-07T18:33:28.242Z,14.20
2019-05-07T18:35:56.680Z,14.10
2019-05-07T18:38:25.098Z,14.10
2019-05-07T18:40:53.551Z,14.00
2019-05-07T18:43:22.604Z,14.00
2019-05-07T18:45:51.713Z,14.00
2019-05-07T18:48:22.278Z,13.90
2019-05-07T18:50:52.191Z,13.90
2019-05-07T18:53:22.737Z,13.80
2019-05-07T18:55:51.728Z,13.80
2019-05-07T18:58:22.274Z,13.80
2019-05-07T19:01:02.682Z,13.70
2019-05-07T19:03:32.499Z,13.70
2019-05-07T19:06:02.776Z,13.70
2019-05-07T19:08:32.635Z,13.60
2019-05-07T19:11:01.352Z,13.50
2019-05-07T19:13:29.798Z,13.50
2019-05-07T19:15:58.234Z,13.60
2019-05-07T19:18:26.651Z,13.60
2019-05-07T19:20:55.091Z,13.60
2019-05-07T19:23:23.497Z,13.40
2019-05-07T19:25:52.406Z,13.40
2019-05-07T19:28:22.488Z,13.50
2019-05-07T19:30:52.829Z,13.40
2019-05-07T19:33:26.446Z,13.40
2019-05-07T19:35:52.765Z,13.30
2019-05-07T19:38:33.868Z,13.30
2019-05-07T19:41:02.352Z,13.30
2019-05-07T19:43:32.547Z,13.30
2019-05-07T19:46:02.905Z,13.20
2019-05-07T19:48:32.324Z,13.20
2019-05-07T19:51:02.911Z,13.20
2019-05-07T19:53:32.697Z,13.20
2019-05-07T19:56:09.021Z,13.30
2019-05-07T19:58:37.466Z,13.30
2019-05-07T20:01:06.641Z,13.20
2019-05-07T20:03:35.125Z,13.10
2019-05-07T20:06:04.097Z,13.00
2019-05-07T20:08:32.538Z,13.00
2019-05-07T20:11:18.992Z,13.00
2019-05-07T20:13:47.399Z,12.90
2019-05-07T20:16:19.496Z,12.90
2019-05-07T20:18:48.402Z,12.80
2019-05-07T20:21:16.908Z,12.80
2019-05-07T20:23:45.425Z,12.80
2019-05-07T20:26:13.861Z,12.80
2019-05-07T20:28:42.326Z,12.80
2019-05-07T20:31:12.150Z,12.80
2019-05-07T20:33:42.198Z,12.80
2019-05-07T20:36:10.911Z,12.60
2019-05-07T20:38:39.343Z,12.70
2019-05-07T20:41:07.768Z,12.60
2019-05-07T20:43:36.208Z,12.60
2019-05-07T20:46:04.622Z,12.50
2019-05-07T20:48:33.058Z,12.50
2019-05-07T20:51:01.465Z,12.50
2019-05-07T20:53:48.316Z,12.50
2019-05-07T20:56:18.366Z,12.40
2019-05-07T20:58:46.797Z,12.30
2019-05-07T21:01:15.226Z,12.40
2019-05-07T21:03:43.665Z,12.30
2019-05-07T21:06:12.172Z,12.30
2019-05-07T21:08:42.716Z,12.30
2019-05-07T21:11:11.903Z,12.30
2019-05-07T21:13:42.670Z,12.20
2019-05-07T21:16:12.607Z,12.10
2019-05-07T21:18:42.084Z,12.10
2019-05-07T21:21:12.497Z,12.20
2019-05-07T21:23:43.196Z,12.30
2019-05-07T21:26:13.106Z,12.20
2019-05-07T21:28:43.263Z,12.10
2019-05-07T21:31:12.025Z,11.90
2019-05-07T21:33:42.728Z,11.90
2019-05-07T21:36:12.128Z,11.90
2019-05-07T21:38:42.497Z,11.80
2019-05-07T21:41:12.877Z,11.80
2019-05-07T21:43:45.604Z,11.90
2019-05-07T21:46:12.819Z,11.70
2019-05-07T21:48:41.507Z,11.60
2019-05-07T21:51:12.089Z,11.60
2019-05-07T21:53:47.714Z,11.50
2019-05-07T21:56:17.786Z,11.60
2019-05-07T21:58:47.876Z,11.60
2019-05-07T22:01:23.697Z,11.60
2019-05-07T22:03:53.594Z,11.50
2019-05-07T22:06:22.718Z,11.50
2019-05-07T22:08:54.442Z,11.50
2019-05-07T22:11:22.990Z,11.40
2019-05-07T22:13:52.786Z,11.40
2019-05-07T22:16:22.285Z,11.30
2019-05-07T22:18:52.184Z,11.20
2019-05-07T22:21:20.758Z,11.20
2019-05-07T22:23:49.191Z,11.30
2019-05-07T22:26:22.948Z,11.40
2019-05-07T22:28:47.749Z,11.40
2019-05-07T22:31:17.816Z,11.60
2019-05-07T22:33:47.966Z,11.60
2019-05-07T22:36:16.378Z,11.40
2019-05-07T22:38:44.815Z,11.40
2019-05-07T22:41:13.234Z,11.30
2019-05-07T22:43:42.483Z,11.20
2019-05-07T22:46:12.451Z,11.20
2019-05-07T22:48:41.866Z,11.20
2019-05-07T22:51:12.240Z,11.40
2019-05-07T22:53:40.725Z,11.50
2019-05-07T22:56:09.142Z,11.50
2019-05-07T22:58:44.938Z,11.30
2019-05-07T23:01:14.985Z,11.20
2019-05-07T23:03:43.419Z,11.20
2019-05-07T23:06:12.365Z,11.00
2019-05-07T23:08:42.409Z,11.00
2019-05-07T23:11:12.282Z,10.90
2019-05-07T23:13:42.671Z,11.00
2019-05-07T23:16:12.600Z,10.90
2019-05-07T23:18:42.869Z,11.00
2019-05-07T23:21:11.754Z,10.80
2019-05-07T23:23:42.224Z,10.80
2019-05-07T23:26:14.277Z,10.60
2019-05-07T23:28:41.876Z,10.80
2019-05-07T23:31:12.100Z,10.90
2019-05-07T23:33:40.596Z,11.00
2019-05-07T23:36:09.090Z,11.10
2019-05-07T23:38:38.061Z,11.20
2019-05-07T23:41:22.182Z,11.20
2019-05-07T23:44:08.484Z,11.20
2019-05-07T23:46:36.941Z,11.20
2019-05-07T23:49:05.355Z,11.20
2019-05-07T23:51:33.793Z,11.20
2019-05-07T23:54:02.912Z,11.20
2019-05-07T23:56:32.909Z,11.10
2019-05-07T23:59:02.128Z,11.20
